Lleida, Spain

9:57 PM CEST on August 26, 2016 (GMT +0200)
La Bordeta | | Change Station
Active Advisory: >

Elev 531 ft 41.60 °N, 0.64 °E | Updated 1 minute ago

Partly Cloudy
Partly Cloudy
79.5 °F
Feels Like 79 °F
N
0.0
Wind Variable Wind from SSW
Gusts 2.0 mph

Today
High -- | Low -- °F
--% Chance of Precip.
Yesterday
High -- | Low -- °F
Precip. -- in
Pressure 30.06 in
Visibility 6.2 miles
Clouds Few 3000 ft
Heat Index 79 °F
Dew Point 51 °F
Humidity 37%
Rainfall 0.00 in
Snow Depth Not available.
7:17 AM 8:39 PM
Waning Crescent, 32% visible
METAR LERS 261930Z VRB01KT 9999 FEW030 24/20 Q1018
Pressure 30.06 in
Visibility 6.2 miles
Clouds Few 3000 ft
Heat Index 79 °F
Dew Point 51 °F
Humidity 37%
Rainfall 0.00 in
Snow Depth Not available.
7:17 AM 8:39 PM
Waning Crescent, 32% visible
METAR LERS 261930Z VRB01KT 9999 FEW030 24/20 Q1018

10-Day Weather Forecast

×

Almanac

Astronomy

Aug. 26, 2016 Rise Set
Actual Time
Civil Twilight
Nautical Twilight
Astronomical Twilight
Moon
Length of Visible Light
Length of Day
Tomorrow will be .
, % of the Moon is Illuminated

Today's Extremes

Country Highs Country Lows

Community

WunderPhotos

Upload Photos

1,935,195 photos uploaded!

WunderBlog® & News

Nearby

Air Quality

  Air Quality AQ Index Pollutant
Not available.

Snow Depth

Station Depth Elevation

Earthquake Activity

City Distance Mag. Time & Date
Minimum magnitude displayed is 2.5.

Coastal Water Temperatures

Place Temperature

Stations

Nearby Weather Stations

Station Location Temp. Windchill Dew Point Humidity Wind Precip. Elev Updated Type